createdAt,value
2016-12-06T00:01:04.174Z,68.86
2016-12-06T00:02:14.726Z,68.48
2016-12-06T00:03:25.295Z,68.96
2016-12-06T00:04:35.859Z,69.15
2016-12-06T00:05:46.428Z,68.67
2016-12-06T00:06:56.972Z,68.57
2016-12-06T00:08:07.516Z,68.67
2016-12-06T00:09:18.216Z,68.67
2016-12-06T00:10:28.778Z,68.76
2016-12-06T00:11:39.333Z,69.15
2016-12-06T00:12:49.884Z,69.15
2016-12-06T00:14:00.458Z,69.82
2016-12-06T00:15:25.516Z,69.92
2016-12-06T00:16:36.069Z,70.4
2016-12-06T00:17:47.108Z,70.78
2016-12-06T00:18:58.167Z,70.59
2016-12-06T00:20:08.722Z,70.78
2016-12-06T00:21:19.484Z,70.68
2016-12-06T00:22:30.586Z,70.68
2016-12-06T00:23:41.200Z,70.98
2016-12-06T00:24:51.787Z,70.3
2016-12-06T00:26:17.070Z,70.5
2016-12-06T00:27:42.316Z,70.78
2016-12-06T00:28:52.763Z,70.98
2016-12-06T00:31:43.211Z,69.92
2016-12-06T00:32:53.625Z,69.92
2016-12-06T00:34:04.031Z,70.21
2016-12-06T00:35:14.467Z,70.59
2016-12-06T00:36:24.921Z,70.5
2016-12-06T00:37:35.584Z,70.4
2016-12-06T00:38:46.017Z,70.11
2016-12-06T00:39:56.462Z,70.78
2016-12-06T00:41:06.913Z,70.5
2016-12-06T00:42:17.347Z,71.08
2016-12-06T00:43:27.796Z,70.59
2016-12-06T00:44:38.251Z,70.5
2016-12-06T00:45:48.709Z,70.88
2016-12-06T00:46:59.148Z,70.62
2016-12-06T00:48:09.806Z,71.11
2016-12-06T00:49:20.658Z,71.01
2016-12-06T00:51:56.140Z,71.17
2016-12-06T00:53:21.114Z,70.82
2016-12-06T00:54:46.490Z,70.78
2016-12-06T00:55:56.908Z,70.82
2016-12-06T00:57:07.334Z,70.72
2016-12-06T00:58:17.779Z,70.72
2016-12-06T00:59:28.224Z,70.43
2016-12-06T01:00:38.752Z,70.24
2016-12-06T01:02:03.736Z,69.67
2016-12-06T01:03:14.244Z,69.95
2016-12-06T01:04:25.179Z,69.57
2016-12-06T01:05:35.695Z,69.57
2016-12-06T01:07:00.882Z,69.28
2016-12-06T01:08:11.368Z,69.28
2016-12-06T01:09:21.843Z,69.18
2016-12-06T01:10:32.345Z,69.85
2016-12-06T01:11:57.362Z,70.24
2016-12-06T01:13:22.373Z,70.43
2016-12-06T01:14:32.851Z,70.68
2016-12-06T01:15:43.321Z,70.88
2016-12-06T01:16:53.762Z,70.88
2016-12-06T01:18:04.235Z,70.78
2016-12-06T01:19:14.691Z,71.17
2016-12-06T01:20:25.160Z,70.98
2016-12-06T01:21:35.642Z,71.08
2016-12-06T01:22:46.122Z,70.98
2016-12-06T01:23:56.576Z,70.98
2016-12-06T01:25:07.231Z,70.98
2016-12-06T01:26:17.716Z,71.65
2016-12-06T01:27:28.388Z,71.08
2016-12-06T01:28:38.910Z,71.08
2016-12-06T01:29:49.359Z,71.94
2016-12-06T01:30:59.816Z,71.36
2016-12-06T01:32:10.299Z,71.26
2016-12-06T01:33:20.958Z,70.98
2016-12-06T01:34:31.433Z,70.98
2016-12-06T01:35:41.913Z,71.17
2016-12-06T01:36:52.348Z,71.08
2016-12-06T01:38:02.699Z,70.98
2016-12-06T01:39:13.231Z,70.98
2016-12-06T01:40:23.576Z,71.17
2016-12-06T01:41:33.907Z,70.98
2016-12-06T01:42:44.280Z,71.75
2016-12-06T01:43:54.611Z,71.55
2016-12-06T01:45:05.171Z,72.03
2016-12-06T01:46:15.514Z,71.75
2016-12-06T01:47:25.901Z,71.84
2016-12-06T01:48:36.286Z,70.88
2016-12-06T01:49:46.635Z,71.65
2016-12-06T01:50:57.186Z,71.55
2016-12-06T01:52:07.560Z,71.94
2016-12-06T01:53:17.908Z,72.42
2016-12-06T01:54:28.262Z,72.13
2016-12-06T01:55:38.617Z,72.03
2016-12-06T01:56:48.981Z,72.23
2016-12-06T01:57:59.354Z,72.32
2016-12-06T01:59:09.709Z,72
2016-12-06T02:00:20.069Z,73
2016-12-06T02:01:30.427Z,73.06
2016-12-06T02:02:40.795Z,73.06
2016-12-06T02:03:51.171Z,72.19
2016-12-06T02:05:01.521Z,72.8
2016-12-06T02:06:11.867Z,72.77
2016-12-06T02:07:22.221Z,72.52
2016-12-06T02:08:32.582Z,72.03
2016-12-06T02:09:42.930Z,72.38
2016-12-06T02:10:53.289Z,72.38
2016-12-06T02:12:03.646Z,72.23
2016-12-06T02:13:14.011Z,72.29
2016-12-06T02:14:24.352Z,72.19
2016-12-06T02:15:34.707Z,72.03
2016-12-06T02:16:45.061Z,72.03
2016-12-06T02:17:55.407Z,72.48
2016-12-06T02:19:05.757Z,72.32
2016-12-06T02:20:16.097Z,72.03
2016-12-06T02:21:26.445Z,72.38
2016-12-06T02:22:36.821Z,72.32
2016-12-06T02:23:47.154Z,71.84
2016-12-06T02:24:57.508Z,72.32
2016-12-06T02:26:08.047Z,72.19
2016-12-06T02:27:18.389Z,72.77
2016-12-06T02:28:28.714Z,72.32
2016-12-06T02:29:39.054Z,72.48
2016-12-06T02:30:49.872Z,73.25
2016-12-06T02:32:00.205Z,73.06
2016-12-06T02:33:25.348Z,73.63
2016-12-06T02:34:35.795Z,73.44
2016-12-06T02:35:46.230Z,74.02
2016-12-06T02:36:56.679Z,73.73
2016-12-06T02:38:07.321Z,73.54
2016-12-06T02:39:17.774Z,73.73
2016-12-06T02:40:28.216Z,73.73
2016-12-06T02:41:53.210Z,73.63
2016-12-06T02:43:03.857Z,73.54
2016-12-06T02:44:14.292Z,73.54
2016-12-06T02:45:24.734Z,73.83
2016-12-06T02:46:35.200Z,73.73
2016-12-06T02:47:45.950Z,73.73
2016-12-06T02:48:56.507Z,73.54
2016-12-06T02:50:07.067Z,73.63
2016-12-06T02:51:17.608Z,73.63
2016-12-06T02:52:28.179Z,73.63
2016-12-06T02:53:38.938Z,73.35
2016-12-06T02:54:50.015Z,73.83
2016-12-06T02:56:01.071Z,73.73
2016-12-06T02:57:12.032Z,73.63
2016-12-06T02:58:22.573Z,73.06
2016-12-06T02:59:33.137Z,73.25
2016-12-06T03:00:43.712Z,73.15
2016-12-06T03:01:54.266Z,73.15
2016-12-06T03:03:04.837Z,72.48
2016-12-06T03:04:15.396Z,73.15
2016-12-06T03:05:26.151Z,73.06
2016-12-06T03:06:36.713Z,73.25
2016-12-06T03:07:47.281Z,73.15
2016-12-06T03:09:12.553Z,72.86
2016-12-06T03:10:23.127Z,73.06
2016-12-06T03:11:33.699Z,73.15
2016-12-06T03:12:44.265Z,73.15
2016-12-06T03:13:54.805Z,72.86
2016-12-06T03:15:05.350Z,72.96
2016-12-06T03:16:15.926Z,73.06
2016-12-06T03:17:41.008Z,72.86
2016-12-06T03:18:51.549Z,72.86
2016-12-06T03:20:02.121Z,73.25
2016-12-06T03:21:12.670Z,73.35
2016-12-06T03:22:23.640Z,73.28
2016-12-06T03:23:34.690Z,72.9
2016-12-06T03:24:45.255Z,73.09
2016-12-06T03:25:55.823Z,72.67
2016-12-06T03:27:06.575Z,72.8
2016-12-06T03:28:17.328Z,72.58
2016-12-06T03:29:56.931Z,72.9
2016-12-06T03:31:07.490Z,73.28
2016-12-06T03:32:18.756Z,73
2016-12-06T03:33:29.323Z,73.77
2016-12-06T03:34:39.905Z,73.15
2016-12-06T03:35:50.470Z,72.96
2016-12-06T03:37:01.045Z,72.96
2016-12-06T03:38:11.687Z,73.73
2016-12-06T03:39:22.263Z,74.11
2016-12-06T03:40:32.838Z,73.54
2016-12-06T03:41:43.407Z,73.73
2016-12-06T03:42:53.962Z,73.83
2016-12-06T03:44:04.518Z,73.63
2016-12-06T03:45:15.087Z,73.83
2016-12-06T03:46:40.182Z,73.63
2016-12-06T03:47:50.749Z,74.02
2016-12-06T03:49:01.338Z,73.92
2016-12-06T03:50:11.992Z,73.44
2016-12-06T03:51:22.557Z,73.54
2016-12-06T03:52:33.136Z,73.67
2016-12-06T03:53:58.214Z,72.86
2016-12-06T03:55:08.965Z,72.96
2016-12-06T03:56:19.513Z,73.19
2016-12-06T03:57:30.067Z,73.15
2016-12-06T03:58:40.601Z,73.86
2016-12-06T03:59:51.348Z,73.54
2016-12-06T04:01:01.919Z,73.77
2016-12-06T04:02:12.493Z,74.02
2016-12-06T04:03:23.048Z,73.44
2016-12-06T04:04:48.130Z,73.83
2016-12-06T04:05:58.700Z,73.83
2016-12-06T04:07:09.261Z,74.02
2016-12-06T04:08:19.811Z,74.11
2016-12-06T04:09:30.360Z,74.4
2016-12-06T04:10:40.944Z,74.88
2016-12-06T04:11:51.516Z,75.07
2016-12-06T04:13:02.070Z,74.98
2016-12-06T04:14:12.624Z,75.07
2016-12-06T04:15:23.175Z,75.65
2016-12-06T04:16:33.739Z,74.88
2016-12-06T04:17:44.285Z,74.69
2016-12-06T04:18:54.850Z,75.07
2016-12-06T04:20:05.430Z,74.79
2016-12-06T04:21:16.479Z,74.98
2016-12-06T04:22:27.217Z,75.65
2016-12-06T04:23:52.318Z,75.56
2016-12-06T04:25:02.867Z,75.65
2016-12-06T04:26:13.417Z,75.46
2016-12-06T04:27:23.957Z,75.46
2016-12-06T04:28:34.502Z,75.46
2016-12-06T04:29:59.605Z,76.04
2016-12-06T04:31:10.106Z,76.09
2016-12-06T04:32:20.524Z,76.19
2016-12-06T04:33:30.942Z,76.19
2016-12-06T04:34:41.357Z,76.48
2016-12-06T04:35:51.763Z,76.19
2016-12-06T04:37:02.179Z,76.09
2016-12-06T04:38:12.787Z,76.09
2016-12-06T04:39:23.194Z,76.96
2016-12-06T04:40:33.608Z,76.39
2016-12-06T04:41:44.017Z,76.19
2016-12-06T04:42:54.425Z,76.67
2016-12-06T04:44:05.039Z,77.06
2016-12-06T04:45:15.457Z,76.86
2016-12-06T04:46:25.862Z,76.96
2016-12-06T04:47:36.228Z,76.77
2016-12-06T04:48:46.543Z,76.96
2016-12-06T04:49:56.881Z,77.15
2016-12-06T04:51:07.193Z,77.53
2016-12-06T04:52:17.506Z,77.25
2016-12-06T04:53:27.818Z,77.34
2016-12-06T04:54:38.131Z,77.06
2016-12-06T04:55:48.645Z,77.73
2016-12-06T04:56:58.960Z,77.73
2016-12-06T04:58:09.273Z,77.63
2016-12-06T04:59:19.591Z,77.21
2016-12-06T05:00:29.941Z,77.53
2016-12-06T05:01:40.461Z,77.69
2016-12-06T05:02:50.773Z,77.78
2016-12-06T05:04:01.090Z,77.4
2016-12-06T05:05:11.412Z,78.36
2016-12-06T05:06:21.728Z,78.17
2016-12-06T05:07:32.043Z,78.08
2016-12-06T05:08:42.368Z,78.17
2016-12-06T05:09:52.680Z,77.98
2016-12-06T05:11:03.001Z,77.88
2016-12-06T05:12:13.315Z,78.55
2016-12-06T05:13:23.841Z,78.65
2016-12-06T05:14:34.152Z,78.75
2016-12-06T05:15:44.470Z,78.84
2016-12-06T05:16:54.808Z,78.94
2016-12-06T05:18:05.122Z,78.45
2016-12-06T05:19:15.444Z,78.55
2016-12-06T05:20:25.758Z,78.75
2016-12-06T05:21:36.071Z,78.65
2016-12-06T05:22:46.384Z,78.17
2016-12-06T05:23:57.176Z,77.88
2016-12-06T05:25:07.488Z,78.65
2016-12-06T05:26:17.814Z,78.75
2016-12-06T05:27:28.127Z,78.75
2016-12-06T05:28:38.440Z,78.84
2016-12-06T05:29:48.756Z,78.75
2016-12-06T05:30:59.270Z,78.75
2016-12-06T05:33:49.110Z,78.75
2016-12-06T05:34:59.512Z,79.13
2016-12-06T05:36:09.928Z,78.94
2016-12-06T05:37:20.818Z,78.94
2016-12-06T05:38:31.230Z,78.55
2016-12-06T05:39:41.631Z,78.65
2016-12-06T05:40:52.040Z,78.94
2016-12-06T05:42:02.455Z,78.84
2016-12-06T05:43:12.861Z,79.03
2016-12-06T05:44:23.268Z,79.13
2016-12-06T05:45:33.673Z,79.13
2016-12-06T05:46:44.085Z,78.88
2016-12-06T05:47:54.693Z,79.13
2016-12-06T05:49:05.101Z,78.65
2016-12-06T05:50:15.507Z,78.45
2016-12-06T05:51:25.916Z,78.94
2016-12-06T05:52:36.321Z,79.13
2016-12-06T05:53:46.929Z,78.75
2016-12-06T05:54:57.359Z,78.55
2016-12-06T05:56:07.766Z,78.75
2016-12-06T05:57:18.179Z,78.65
2016-12-06T05:58:28.582Z,78.65
2016-12-06T05:59:38.989Z,78.75
2016-12-06T06:00:49.895Z,79.13
2016-12-06T06:02:00.323Z,78.84
2016-12-06T06:03:10.729Z,79.03
2016-12-06T06:04:35.694Z,79.03
2016-12-06T06:05:46.295Z,78.94
2016-12-06T06:06:56.700Z,79.03
2016-12-06T06:08:07.588Z,78.84
2016-12-06T06:09:18.485Z,79.03
2016-12-06T06:10:28.893Z,78.94
2016-12-06T06:11:39.300Z,78.75
2016-12-06T06:12:49.707Z,79.32
2016-12-06T06:14:00.115Z,78.65
2016-12-06T06:15:10.558Z,79.03
2016-12-06T06:16:21.085Z,78.65
2016-12-06T06:17:31.611Z,79.22
2016-12-06T06:18:42.133Z,78.75
2016-12-06T06:19:52.658Z,78.45
2016-12-06T06:21:03.181Z,78.17
2016-12-06T06:22:13.912Z,78.27
2016-12-06T06:23:24.937Z,77.98
2016-12-06T06:24:35.459Z,78.65
2016-12-06T06:25:45.982Z,78.65
2016-12-06T06:26:56.510Z,79.32
2016-12-06T06:28:07.234Z,79.03
2016-12-06T06:29:17.774Z,79.71
2016-12-06T06:30:28.304Z,78.84
2016-12-06T06:31:38.828Z,79.13
2016-12-06T06:32:49.350Z,79.13
2016-12-06T06:34:00.073Z,78.65
2016-12-06T06:35:10.598Z,78.84
2016-12-06T06:36:21.124Z,78.94
2016-12-06T06:37:31.670Z,79.03
2016-12-06T06:38:42.691Z,78.84
2016-12-06T06:39:53.414Z,78.36
2016-12-06T06:41:03.944Z,79.13
2016-12-06T06:42:14.472Z,79.03
2016-12-06T06:43:24.994Z,79.03
2016-12-06T06:44:36.021Z,79.13
2016-12-06T06:45:46.543Z,79.13
2016-12-06T06:46:57.065Z,79.03
2016-12-06T06:48:07.589Z,79.22
2016-12-06T06:49:18.111Z,78.75
2016-12-06T06:50:28.635Z,78.84
2016-12-06T06:51:53.885Z,78.94
2016-12-06T06:53:04.414Z,79.13
2016-12-06T06:54:14.944Z,78.55
2016-12-06T06:55:25.467Z,78.65
2016-12-06T06:56:35.991Z,78.94
2016-12-06T06:57:46.515Z,78.75
2016-12-06T06:58:57.040Z,78.94
2016-12-06T07:00:07.563Z,79.71
2016-12-06T07:01:32.616Z,79.22
2016-12-06T07:02:43.202Z,79.38
2016-12-06T07:03:53.635Z,79.28
2016-12-06T07:05:04.073Z,78.7
2016-12-06T07:06:14.503Z,79.09
2016-12-06T07:07:25.134Z,79.03
2016-12-06T07:08:36.059Z,79.09
2016-12-06T07:09:46.493Z,79.03
2016-12-06T07:10:56.924Z,78.94
2016-12-06T07:12:07.357Z,79.03
2016-12-06T07:13:17.986Z,78.36
2016-12-06T07:14:28.417Z,78.75
2016-12-06T07:15:38.882Z,78.45
2016-12-06T07:16:49.312Z,79.13
2016-12-06T07:17:59.742Z,78.52
2016-12-06T07:19:10.376Z,78.45
2016-12-06T07:20:20.810Z,78.65
2016-12-06T07:21:31.726Z,78.94
2016-12-06T07:22:42.156Z,79.13
2016-12-06T07:23:52.586Z,78.65
2016-12-06T07:25:03.189Z,78.99
2016-12-06T07:26:13.536Z,78.52
2016-12-06T07:27:23.855Z,79.09
2016-12-06T07:28:34.168Z,78.94
2016-12-06T07:29:44.487Z,78.61
2016-12-06T07:31:09.368Z,78.23
2016-12-06T07:32:19.686Z,78.42
2016-12-06T07:33:44.565Z,78.75
2016-12-06T07:34:54.880Z,79.09
2016-12-06T07:36:05.192Z,78.99
2016-12-06T07:38:40.389Z,78.9
2016-12-06T07:39:50.702Z,78.99
2016-12-06T07:41:01.019Z,78.42
2016-12-06T07:42:12.040Z,78.32
2016-12-06T07:43:22.355Z,78.7
2016-12-06T07:44:32.668Z,78.42
2016-12-06T07:45:42.984Z,78.52
2016-12-06T07:46:53.502Z,78.52
2016-12-06T07:48:03.859Z,77.94
2016-12-06T07:49:14.263Z,77.84
2016-12-06T07:50:24.669Z,77.84
2016-12-06T07:53:14.778Z,78.23
2016-12-06T07:54:25.183Z,78.03
2016-12-06T07:55:35.589Z,77.65
2016-12-06T07:56:45.994Z,77.36
2016-12-06T07:57:56.635Z,77.36
2016-12-06T07:59:07.043Z,77.65
2016-12-06T08:00:17.456Z,77.08
2016-12-06T08:01:27.862Z,77.46
2016-12-06T08:02:38.267Z,77.46
2016-12-06T08:03:48.705Z,77.94
2016-12-06T08:04:59.594Z,77.36
2016-12-06T08:06:10.006Z,77.94
2016-12-06T08:07:20.895Z,77.65
2016-12-06T08:08:31.304Z,77.75
2016-12-06T08:09:41.907Z,78.03
2016-12-06T08:10:52.311Z,77.56
2016-12-06T08:12:02.717Z,77.56
2016-12-06T08:13:13.614Z,77.26
2016-12-06T08:14:24.018Z,76.79
2016-12-06T08:15:34.626Z,77.26
2016-12-06T08:16:45.030Z,77.36
2016-12-06T08:18:09.988Z,76.98
2016-12-06T08:19:20.397Z,77.31
2016-12-06T08:20:30.811Z,76.21
2016-12-06T08:21:55.763Z,76.69
2016-12-06T08:23:06.171Z,76.73
2016-12-06T08:24:16.572Z,77.01
2016-12-06T08:25:26.980Z,77.36
2016-12-06T08:26:37.389Z,77.26
2016-12-06T08:27:47.792Z,77.21
2016-12-06T08:28:58.200Z,77.36
2016-12-06T08:30:08.605Z,78.42
2016-12-06T08:40:25.779Z,79.71
2016-12-06T08:41:36.301Z,79.42
2016-12-06T08:42:46.826Z,79.03
2016-12-06T08:43:57.352Z,78.94
2016-12-06T08:45:07.876Z,77.4
2016-12-06T08:46:18.398Z,76.73
2016-12-06T08:47:29.911Z,77.08
2016-12-06T08:48:40.437Z,77.01
2016-12-06T08:49:50.961Z,76.98
2016-12-06T08:51:16.010Z,77.36
2016-12-06T08:52:27.034Z,76.88
2016-12-06T08:53:37.559Z,77.26
2016-12-06T08:54:48.117Z,77.26
2016-12-06T08:56:13.174Z,77.36
2016-12-06T08:57:24.203Z,77.26
2016-12-06T08:58:34.725Z,76.98
2016-12-06T08:59:45.357Z,77.08
2016-12-06T09:00:55.898Z,77.17
2016-12-06T09:02:06.448Z,77.08
2016-12-06T09:03:16.973Z,76.88
2016-12-06T09:04:27.698Z,76.64
2016-12-06T09:05:38.224Z,76.92
2016-12-06T09:06:49.259Z,76.98
2016-12-06T09:07:59.783Z,76.79
2016-12-06T09:09:10.307Z,76.79
2016-12-06T09:10:20.834Z,76.06
2016-12-06T09:11:31.355Z,76.44
2016-12-06T09:12:41.879Z,76.54
2016-12-06T09:15:17.454Z,76.34
2016-12-06T09:16:27.978Z,75.96
2016-12-06T09:17:38.467Z,76.15
2016-12-06T09:18:48.899Z,77.21
2016-12-06T09:19:59.363Z,77.11
2016-12-06T09:21:10.296Z,77.11
2016-12-06T09:22:20.727Z,77.01
2016-12-06T09:23:45.701Z,77.01
2016-12-06T09:24:56.131Z,78.08
2016-12-06T09:26:06.561Z,77.4
2016-12-06T09:27:17.199Z,77.01
2016-12-06T09:28:27.635Z,77.88
2016-12-06T09:31:03.046Z,77.31
2016-12-06T09:32:13.481Z,76.82
2016-12-06T09:33:23.928Z,77.4
2016-12-06T09:34:34.357Z,78.27
2016-12-06T09:35:44.788Z,77.4
2016-12-06T09:36:55.420Z,77.11
2016-12-06T09:38:05.855Z,77.01
2016-12-06T09:39:16.294Z,77.21
2016-12-06T09:40:26.727Z,77.31
2016-12-06T09:41:37.160Z,77.06
2016-12-06T09:42:47.798Z,76.67
2016-12-06T09:43:58.240Z,76.86
2016-12-06T09:45:08.673Z,77.06
2016-12-06T09:46:33.650Z,77.34
2016-12-06T09:47:44.079Z,76.96
2016-12-06T09:48:54.515Z,77.34
2016-12-06T09:50:04.943Z,77.34
2016-12-06T09:51:29.917Z,76.77
2016-12-06T09:52:40.356Z,77.06
2016-12-06T09:53:50.788Z,76.57
2016-12-06T09:55:01.266Z,76.39
2016-12-06T09:56:11.695Z,75.9
2016-12-06T09:57:22.127Z,75.81
2016-12-06T09:58:47.303Z,75.62
2016-12-06T09:59:57.730Z,74.65
2016-12-06T10:01:08.162Z,74.94
2016-12-06T10:02:18.590Z,73.6
2016-12-06T10:03:29.505Z,73.88
2016-12-06T10:04:40.137Z,73.73
2016-12-06T10:05:50.563Z,73.5
2016-12-06T10:07:00.995Z,73.69
2016-12-06T10:08:11.435Z,73.73
2016-12-06T10:09:21.888Z,73.6
2016-12-06T10:10:32.325Z,73.6
2016-12-06T10:11:42.754Z,73.63
2016-12-06T10:12:53.182Z,73.63
2016-12-06T10:14:03.611Z,72.86
2016-12-06T10:15:14.043Z,73.92
2016-12-06T10:16:24.571Z,74.02
2016-12-06T10:17:34.999Z,73.25
2016-12-06T10:18:45.430Z,72.19
2016-12-06T10:20:10.405Z,74.4
2016-12-06T10:21:20.836Z,73.44
2016-12-06T10:22:31.463Z,71.23
2016-12-06T10:23:41.889Z,70.75
2016-12-06T10:24:52.820Z,69.6
2016-12-06T10:26:03.253Z,69.89
2016-12-06T10:27:13.884Z,69.5
2016-12-06T10:28:24.314Z,69.21
2016-12-06T10:29:34.741Z,68.83
2016-12-06T10:32:11.195Z,68.63
2016-12-06T10:33:22.119Z,68.73
2016-12-06T10:34:32.550Z,68.06
2016-12-06T10:35:42.982Z,68.06
2016-12-06T10:36:53.902Z,67.77
2016-12-06T10:38:04.331Z,68.35
2016-12-06T10:39:15.291Z,68.15
2016-12-06T10:40:25.742Z,67.99
2016-12-06T10:41:36.172Z,67.96
2016-12-06T10:42:46.597Z,66.84
2016-12-06T10:43:57.234Z,67.71
2016-12-06T10:45:07.681Z,68.76
2016-12-06T10:46:18.618Z,67.99
2016-12-06T10:47:29.542Z,67.99
2016-12-06T10:48:54.516Z,68.67
2016-12-06T10:50:19.491Z,67.99
2016-12-06T10:51:29.919Z,68.67
2016-12-06T10:52:40.321Z,68.86
2016-12-06T10:53:50.634Z,67.71
2016-12-06T10:55:01.152Z,66.65
2016-12-06T10:56:11.506Z,68.9
2016-12-06T10:57:21.830Z,67.07
2016-12-06T10:58:32.144Z,66.97
2016-12-06T10:59:57.222Z,67.03
2016-12-06T11:01:07.538Z,66.58
2016-12-06T11:02:17.854Z,66.78
2016-12-06T11:03:28.188Z,66.78
2016-12-06T11:04:38.496Z,66.01
2016-12-06T11:05:48.810Z,66.01
2016-12-06T11:07:14.170Z,65.33
2016-12-06T11:08:24.488Z,64.76
2016-12-06T11:09:34.800Z,64.5
2016-12-06T11:10:45.115Z,64.5
2016-12-06T11:11:55.456Z,64.76
2016-12-06T11:14:30.667Z,63.82
2016-12-06T11:15:40.975Z,65.27
2016-12-06T11:16:51.494Z,64.69
2016-12-06T11:18:01.809Z,64.15
2016-12-06T11:19:12.123Z,62.6
2016-12-06T11:20:22.440Z,62.41
2016-12-06T11:21:47.322Z,62.51
2016-12-06T11:22:57.837Z,62.32
2016-12-06T11:24:08.152Z,61.45
2016-12-06T11:25:18.463Z,61
2016-12-06T11:26:28.776Z,60.42
2016-12-06T11:27:39.193Z,60.71
2016-12-06T11:29:04.075Z,60.42
2016-12-06T11:30:14.395Z,59.3
2016-12-06T11:31:24.746Z,59.1
2016-12-06T11:32:35.563Z,59
2016-12-06T11:33:46.077Z,58.55
2016-12-06T11:34:56.399Z,59.3
2016-12-06T11:36:06.719Z,59.39
2016-12-06T11:37:17.033Z,59.78
2016-12-06T11:38:27.345Z,59.03
2016-12-06T11:39:37.657Z,57.97
2016-12-06T11:40:47.966Z,58.29
2016-12-06T11:41:58.277Z,57.9
2016-12-06T11:43:08.619Z,57.93
2016-12-06T11:44:19.142Z,57.35
2016-12-06T11:45:44.028Z,56.32
2016-12-06T11:46:54.825Z,55.26
2016-12-06T11:48:05.145Z,54.97
2016-12-06T11:50:41.838Z,55.09
2016-12-06T11:51:52.153Z,54.99
2016-12-06T11:53:02.953Z,54.53
2016-12-06T11:54:13.761Z,54.15
2016-12-06T11:55:24.094Z,53.47
2016-12-06T11:56:34.409Z,53.47
2016-12-06T11:57:44.724Z,53.96
2016-12-06T11:58:55.037Z,53.69
2016-12-06T12:00:05.356Z,53.5
2016-12-06T12:01:15.772Z,53.59
2016-12-06T12:02:26.122Z,53.41
2016-12-06T12:03:51.103Z,53.5
2016-12-06T12:05:01.532Z,53.11
2016-12-06T12:06:11.964Z,53.21
2016-12-06T12:07:22.596Z,51.98
2016-12-06T12:08:33.032Z,50.62
2016-12-06T12:09:43.466Z,50.14
2016-12-06T12:10:53.899Z,49.58
2016-12-06T12:12:04.533Z,50.26
2016-12-06T12:13:14.968Z,49.58
2016-12-06T12:14:25.424Z,50.07
2016-12-06T12:15:35.862Z,49.8
2016-12-06T12:16:46.301Z,49.99
2016-12-06T12:17:56.973Z,49.41
2016-12-06T12:19:07.517Z,49.34
2016-12-06T12:20:18.045Z,49.44
2016-12-06T12:21:28.580Z,47.98
2016-12-06T12:22:39.126Z,46.94
2016-12-06T12:24:04.181Z,46.55
2016-12-06T12:25:14.708Z,46.55
2016-12-06T12:26:25.238Z,46.26
2016-12-06T12:27:50.293Z,45.68
2016-12-06T12:29:00.853Z,44.54
2016-12-06T12:30:11.380Z,45.7
2016-12-06T12:31:21.913Z,44.95
2016-12-06T12:32:32.448Z,45.43
2016-12-06T12:33:42.975Z,45.82
2016-12-06T12:34:53.703Z,45.34
2016-12-06T12:36:04.239Z,44.78
2016-12-06T12:37:14.741Z,44.19
2016-12-06T12:38:25.149Z,44.31
2016-12-06T12:39:50.124Z,43.24
2016-12-06T12:41:00.534Z,42.95
2016-12-06T12:42:11.432Z,43.05
2016-12-06T12:43:21.848Z,42.08
2016-12-06T12:44:32.741Z,43.05
2016-12-06T12:45:43.835Z,42.29
2016-12-06T12:46:54.248Z,42.76
2016-12-06T12:48:04.657Z,42.36
2016-12-06T12:49:15.553Z,42.1
2016-12-06T12:50:25.964Z,42.68
2016-12-06T12:51:36.371Z,43.15
2016-12-06T12:52:46.779Z,41.42
2016-12-06T12:53:57.188Z,41.24
2016-12-06T12:55:07.726Z,40.66
2016-12-06T12:56:18.137Z,41.36
2016-12-06T12:57:28.745Z,40.58
2016-12-06T12:58:39.162Z,40.29
2016-12-06T12:59:49.602Z,40.39
2016-12-06T13:01:00.009Z,38.54
2016-12-06T13:02:10.421Z,38.05
2016-12-06T13:03:21.033Z,39.03
2016-12-06T13:04:31.453Z,40.19
2016-12-06T13:05:42.979Z,39.98
2016-12-06T13:06:53.399Z,40.56
2016-12-06T13:08:04.321Z,40.95
2016-12-06T13:09:15.436Z,39.69
2016-12-06T13:10:26.064Z,39.2
2016-12-06T13:11:36.485Z,39.69
2016-12-06T13:12:47.202Z,39.76
2016-12-06T13:13:57.736Z,39.69
2016-12-06T13:15:08.271Z,40.27
2016-12-06T13:16:18.805Z,40
2016-12-06T13:17:29.334Z,39.22
2016-12-06T13:20:04.925Z,38.36
2016-12-06T13:21:15.707Z,38.57
2016-12-06T13:22:26.740Z,37.89
2016-12-06T13:23:51.804Z,38.26
2016-12-06T13:25:02.334Z,38.36
2016-12-06T13:26:12.866Z,37.97
2016-12-06T13:27:23.415Z,38.17
2016-12-06T13:28:33.949Z,38.07
2016-12-06T13:29:44.484Z,39.31
2016-12-06T13:30:55.216Z,39.03
2016-12-06T13:32:06.248Z,38.36
2016-12-06T13:33:31.308Z,38.07
2016-12-06T13:34:41.852Z,37.77
2016-12-06T13:35:52.383Z,37.5
2016-12-06T13:38:28.191Z,36.74
2016-12-06T13:39:38.726Z,36.94
2016-12-06T13:40:49.261Z,35.78
2016-12-06T13:41:59.993Z,35.78
2016-12-06T13:43:10.542Z,35.71
2016-12-06T13:44:21.084Z,35.8
2016-12-06T13:45:46.652Z,34.65
2016-12-06T13:47:11.676Z,33.97
2016-12-06T13:48:22.115Z,34.36
2016-12-06T13:49:32.587Z,35.33
2016-12-06T13:50:43.028Z,34.05
2016-12-06T13:51:53.464Z,32.89
2016-12-06T13:53:03.907Z,32.89
2016-12-06T13:54:14.348Z,33.38
2016-12-06T13:55:24.791Z,33.87
2016-12-06T13:56:35.233Z,33.58
2016-12-06T13:57:45.675Z,33.3
2016-12-06T13:58:56.115Z,33.2
2016-12-06T14:00:07.072Z,33.3
2016-12-06T14:01:17.515Z,33.2
2016-12-06T14:02:27.966Z,33.01
2016-12-06T14:03:52.992Z,32.89
2016-12-06T14:05:03.437Z,33.11
2016-12-06T14:06:28.430Z,33.01
2016-12-06T14:07:38.874Z,33.31
2016-12-06T14:08:49.316Z,32.82
2016-12-06T14:10:00.488Z,32.14
2016-12-06T14:11:10.932Z,33.04
2016-12-06T14:12:21.374Z,33.02
2016-12-06T14:13:32.323Z,32.06
2016-12-06T14:14:42.770Z,32.35
2016-12-06T14:15:53.217Z,32.26
2016-12-06T14:17:03.660Z,31.78
2016-12-06T14:18:14.106Z,31.2
2016-12-06T14:19:24.550Z,31.29
2016-12-06T14:20:34.992Z,30.61
2016-12-06T14:21:45.439Z,31.49
2016-12-06T14:22:55.883Z,31.88
2016-12-06T14:24:06.821Z,32.07
2016-12-06T14:25:17.266Z,31.78
2016-12-06T14:26:27.719Z,32.09
2016-12-06T14:27:38.161Z,33.17
2016-12-06T14:29:03.169Z,33.25
2016-12-06T14:30:13.611Z,31.98
2016-12-06T14:31:24.051Z,32.37
2016-12-06T14:32:34.690Z,32.27
2016-12-06T14:33:59.683Z,33.64
2016-12-06T14:35:10.130Z,33.54
2016-12-06T14:36:21.064Z,32.76
2016-12-06T14:37:31.539Z,32.27
2016-12-06T14:38:41.979Z,31.98
2016-12-06T14:39:52.418Z,31.88
2016-12-06T14:41:02.860Z,31.68
2016-12-06T14:42:13.405Z,32.27
2016-12-06T14:43:23.850Z,32.17
2016-12-06T14:44:34.291Z,31.9
2016-12-06T14:45:44.740Z,33.15
2016-12-06T14:46:55.184Z,32.07
2016-12-06T14:48:06.530Z,32.09
2016-12-06T14:49:18.394Z,32.09
2016-12-06T14:50:28.843Z,31.7
2016-12-06T14:51:39.299Z,31.52
2016-12-06T14:52:49.745Z,31.62
2016-12-06T14:54:00.198Z,31.83
2016-12-06T14:55:11.666Z,31.52
2016-12-06T14:56:22.109Z,31.9
2016-12-06T14:57:32.558Z,31.6
2016-12-06T14:58:43.033Z,32.01
2016-12-06T14:59:53.493Z,32.78
2016-12-06T15:01:18.495Z,32.78
2016-12-06T15:02:28.946Z,33.34
2016-12-06T15:03:39.385Z,34.5
2016-12-06T15:04:49.834Z,33.43
2016-12-06T15:06:00.278Z,32.94
2016-12-06T15:07:10.731Z,33.43
2016-12-06T15:08:21.195Z,34.29
2016-12-06T15:09:46.181Z,34.67
2016-12-06T15:11:11.383Z,35.36
2016-12-06T15:12:21.829Z,35.45
2016-12-06T15:13:32.276Z,35.9
2016-12-06T15:14:42.729Z,35.71
2016-12-06T15:15:53.184Z,36.11
2016-12-06T15:17:03.695Z,35.33
2016-12-06T15:18:14.234Z,37.46
2016-12-06T15:19:24.804Z,38.53
2016-12-06T15:22:01.134Z,38.42
2016-12-06T15:23:11.678Z,38.02
2016-12-06T15:24:36.795Z,37.55
2016-12-06T15:26:02.064Z,37.85
2016-12-06T15:27:27.148Z,37.37
2016-12-06T15:28:37.707Z,37.07
2016-12-06T15:30:02.828Z,36.78
2016-12-06T15:31:13.390Z,36.88
2016-12-06T15:32:23.896Z,36.86
2016-12-06T15:33:34.312Z,36.86
2016-12-06T15:34:44.734Z,37.25
2016-12-06T15:35:55.150Z,36.98
2016-12-06T15:37:05.570Z,36.88
2016-12-06T15:38:15.997Z,37.37
2016-12-06T15:39:26.437Z,37.37
2016-12-06T15:40:36.873Z,37.07
2016-12-06T15:41:47.311Z,36.96
2016-12-06T15:42:57.968Z,36.76
2016-12-06T15:44:08.929Z,36.96
2016-12-06T15:45:19.364Z,37.93
2016-12-06T15:46:29.803Z,39.88
2016-12-06T15:47:40.229Z,38.22
2016-12-06T15:48:50.871Z,38.14
2016-12-06T15:50:15.852Z,37.35
2016-12-06T15:51:26.276Z,38.4
2016-12-06T15:52:36.716Z,38.4
2016-12-06T15:53:47.163Z,38.49
2016-12-06T15:54:57.593Z,38.1